Time;durP1;ratioP1;P1;durP2;ratioP2;P2;SDS_P1;SDS_P2;PMS_P1;PMS_P2;Temp;Humidity;BMP_temperature;BMP_pressure;BME280_temperature;BME280_humidity;BME280_pressure;Samples;Min_cycle;Max_cycle;Signal;HPM_P1;HPM_P2
2021/08/02 00:00:25;;;;;;;12.07;9.10;;;;;;;24.19;100.00;96122.69;5091964;28;20564;-81
2021/08/02 00:03:02;;;;;;;10.93;9.83;;;;;;;24.02;100.00;96115.75;5091764;28;20204;-81
2021/08/02 00:05:36;;;;;;;10.90;9.83;;;;;;;23.80;100.00;96113.84;5091732;28;20180;-82
2021/08/02 00:08:05;;;;;;;11.63;10.53;;;;;;;23.54;100.00;96114.47;5091566;28;20212;-81
2021/08/02 00:10:34;;;;;;;10.23;9.23;;;;;;;23.47;100.00;96110.06;5091534;28;20203;-81
2021/08/02 00:13:06;;;;;;;11.30;10.20;;;;;;;23.42;100.00;96118.03;5091612;28;20236;-81
2021/08/02 00:15:34;;;;;;;11.50;9.30;;;;;;;23.73;100.00;96119.38;5091935;28;20281;-81
2021/08/02 00:18:01;;;;;;;11.60;10.33;;;;;;;23.89;100.00;96116.91;5091437;28;20253;-81
2021/08/02 00:20:32;;;;;;;11.53;10.23;;;;;;;23.72;100.00;96120.41;5091224;28;20236;-81
2021/08/02 00:23:05;;;;;;;13.97;9.40;;;;;;;23.79;100.00;96114.88;5091592;28;20191;-81
2021/08/02 00:25:34;;;;;;;11.57;10.47;;;;;;;23.93;100.00;96121.56;5091366;28;20219;-81
2021/08/02 00:28:03;;;;;;;11.00;9.97;;;;;;;23.47;100.00;96128.84;5091604;28;20703;-81
2021/08/02 00:30:31;;;;;;;11.23;10.03;;;;;;;23.49;100.00;96118.69;5091500;28;20243;-81
2021/08/02 00:32:58;;;;;;;11.70;10.03;;;;;;;23.24;100.00;96118.25;5091735;28;20246;-81
2021/08/02 00:35:25;;;;;;;10.90;9.23;;;;;;;23.39;100.00;96113.16;5091108;28;20262;-81
2021/08/02 00:38:02;;;;;;;10.10;9.10;;;;;;;23.15;100.00;96119.72;5091370;28;20238;-81
2021/08/02 00:41:09;;;;;;;10.43;9.43;;;;;;;23.22;100.00;96113.16;5091345;28;20184;-81
2021/08/02 00:44:11;;;;;;;11.17;8.97;;;;;;;23.29;100.00;96107.63;5091242;28;20195;-81
2021/08/02 00:46:42;;;;;;;9.67;8.70;;;;;;;23.20;100.00;96104.53;5091314;28;20565;-81
2021/08/02 00:49:13;;;;;;;13.60;9.20;;;;;;;23.17;100.00;96107.72;5091478;28;20185;-81
2021/08/02 00:51:47;;;;;;;10.80;9.33;;;;;;;23.21;100.00;96102.69;5093436;28;20215;-81
2021/08/02 00:54:16;;;;;;;12.67;9.77;;;;;;;23.11;100.00;96105.19;5095118;28;20561;-81
2021/08/02 00:56:47;;;;;;;11.23;9.80;;;;;;;23.12;100.00;96099.56;5094923;28;20647;-81
2021/08/02 00:59:15;;;;;;;11.73;9.67;;;;;;;23.17;100.00;96099.66;5095185;28;20246;-81
2021/08/02 01:01:44;;;;;;;11.00;8.77;;;;;;;23.23;100.00;96090.63;5094846;28;20196;-81
2021/08/02 01:04:13;;;;;;;10.07;7.93;;;;;;;23.13;100.00;96090.47;5095038;28;20196;-81
2021/08/02 01:06:41;;;;;;;11.23;9.83;;;;;;;23.16;100.00;96089.16;5094724;28;20196;-81
2021/08/02 01:09:09;;;;;;;10.97;9.97;;;;;;;23.37;100.00;96087.63;5094917;28;20279;-81
2021/08/02 01:11:39;;;;;;;10.17;9.20;;;;;;;23.38;100.00;96086.56;5094530;28;20703;-81
2021/08/02 01:14:08;;;;;;;10.60;9.67;;;;;;;23.52;100.00;96085.22;5094802;28;20696;-81
2021/08/02 01:16:37;;;;;;;19.13;10.50;;;;;;;23.44;100.00;96083.72;5094491;28;20238;-81
2021/08/02 01:19:09;;;;;;;10.53;9.53;;;;;;;23.44;100.00;96089.09;5094359;28;20200;-81
2021/08/02 01:21:39;;;;;;;10.63;9.53;;;;;;;23.45;100.00;96085.38;5094257;28;20728;-81
2021/08/02 01:24:11;;;;;;;12.50;9.90;;;;;;;23.33;100.00;96089.19;5094691;28;20195;-82
2021/08/02 01:27:23;;;;;;;11.57;9.80;;;;;;;23.45;100.00;96082.69;5094538;28;20629;-81
2021/08/02 01:30:19;;;;;;;13.20;9.93;;;;;;;23.30;100.00;96082.44;5094415;28;20218;-81
2021/08/02 01:32:48;;;;;;;11.33;10.17;;;;;;;23.41;100.00;96068.13;5094294;28;20233;-81
2021/08/02 01:35:16;;;;;;;11.60;10.07;;;;;;;23.29;100.00;96080.81;5094399;28;20653;-80
2021/08/02 01:37:45;;;;;;;10.33;8.67;;;;;;;23.04;100.00;96085.75;5094197;28;20200;-81
2021/08/02 01:40:14;;;;;;;10.57;9.57;;;;;;;23.15;100.00;96087.56;5094202;28;20215;-81
2021/08/02 01:42:41;;;;;;;11.17;10.10;;;;;;;23.05;100.00;96096.22;5093981;28;20193;-81
2021/08/02 01:45:10;;;;;;;10.83;9.73;;;;;;;23.00;100.00;96094.28;5094396;28;20665;-81
2021/08/02 01:47:42;;;;;;;13.07;9.83;;;;;;;23.18;100.00;96097.78;5093654;28;20206;-81
2021/08/02 01:50:28;;;;;;;16.13;10.67;;;;;;;23.11;100.00;96106.00;5094316;28;20218;-81
2021/08/02 01:53:03;;;;;;;10.80;9.80;;;;;;;23.11;100.00;96106.00;5093989;28;20188;-81
2021/08/02 01:55:32;;;;;;;13.43;9.93;;;;;;;23.04;100.00;96101.84;5093596;28;20207;-81
2021/08/02 01:58:03;;;;;;;13.27;10.60;;;;;;;23.01;100.00;96103.94;5093883;28;20196;-82
2021/08/02 02:00:34;;;;;;;10.87;9.53;;;;;;;22.65;100.00;96091.69;5093759;28;20224;-81
2021/08/02 02:03:08;;;;;;;11.43;9.03;;;;;;;22.79;100.00;96097.59;5093337;28;20266;-81
2021/08/02 02:05:38;;;;;;;11.50;9.90;;;;;;;22.77;100.00;96092.47;5093622;28;20230;-81
2021/08/02 02:08:12;;;;;;;10.43;9.47;;;;;;;22.86;100.00;96089.41;5093632;28;20660;-81
2021/08/02 02:10:46;;;;;;;14.43;10.57;;;;;;;22.89;100.00;96095.09;5093903;28;20629;-81
2021/08/02 02:13:18;;;;;;;11.27;10.17;;;;;;;22.91;100.00;96095.69;5093356;28;20180;-81
2021/08/02 02:15:49;;;;;;;13.73;10.77;;;;;;;22.77;100.00;96089.00;5093200;28;20295;-81
2021/08/02 02:18:18;;;;;;;11.23;9.13;;;;;;;22.54;100.00;96093.38;5093473;28;20218;-81
2021/08/02 02:20:49;;;;;;;10.60;9.60;;;;;;;22.47;100.00;96105.28;5093077;28;20235;-81
2021/08/02 02:23:17;;;;;;;10.80;9.80;;;;;;;22.34;100.00;96106.34;5093514;28;20618;-81
2021/08/02 02:25:47;;;;;;;10.27;9.03;;;;;;;22.57;100.00;96102.00;5093198;28;20650;-81
2021/08/02 02:28:15;;;;;;;11.23;10.10;;;;;;;22.60;100.00;96098.84;5093396;28;20246;-82
2021/08/02 02:30:45;;;;;;;11.43;10.27;;;;;;;22.68;100.00;96112.66;5093337;28;20583;-82
2021/08/02 02:33:13;;;;;;;14.87;10.43;;;;;;;22.75;100.00;96120.56;5092967;28;20207;-82
2021/08/02 02:35:42;;;;;;;12.70;10.53;;;;;;;22.43;100.00;96123.69;5092849;28;20232;-81
2021/08/02 02:38:11;;;;;;;18.10;10.83;;;;;;;22.42;100.00;96114.03;5093092;28;20613;-82
2021/08/02 02:40:39;;;;;;;12.43;11.23;;;;;;;22.61;100.00;96108.50;5092914;28;20200;-82
2021/08/02 02:43:09;;;;;;;14.57;10.73;;;;;;;22.26;100.00;96104.88;5092767;28;20669;-82
2021/08/02 02:45:37;;;;;;;11.40;10.07;;;;;;;22.29;100.00;96107.06;5093209;28;20192;-81
2021/08/02 02:48:06;;;;;;;11.37;9.73;;;;;;;22.32;100.00;96108.47;5092844;28;20366;-82
2021/08/02 02:50:34;;;;;;;11.70;10.63;;;;;;;21.90;100.00;96094.44;5093116;28;20269;-81
2021/08/02 02:53:04;;;;;;;12.83;10.70;;;;;;;22.23;100.00;96093.81;5092529;28;20254;-81
2021/08/02 02:55:32;;;;;;;11.10;10.00;;;;;;;22.41;100.00;96103.53;5092589;28;20727;-81
2021/08/02 02:58:00;;;;;;;9.97;9.10;;;;;;;22.28;100.00;96096.63;5092886;28;20269;-81
2021/08/02 03:00:29;;;;;;;10.87;10.07;;;;;;;22.43;100.00;96104.94;5092648;28;20201;-81
2021/08/02 03:02:58;;;;;;;14.90;10.87;;;;;;;22.40;100.00;96105.41;5092515;28;20245;-82
2021/08/02 03:05:27;;;;;;;12.83;11.17;;;;;;;22.43;100.00;96096.91;5092779;28;20191;-83
2021/08/02 03:07:59;;;;;;;12.23;10.80;;;;;;;22.31;100.00;96096.16;5092458;28;20193;-82
2021/08/02 03:10:27;;;;;;;10.67;9.77;;;;;;;22.17;100.00;96095.59;5092753;28;20184;-80
2021/08/02 03:12:54;;;;;;;16.40;10.73;;;;;;;22.14;100.00;96097.91;5090185;28;20630;-81
2021/08/02 03:15:22;;;;;;;11.17;9.87;;;;;;;22.12;100.00;96089.28;5078946;28;20259;-81
2021/08/02 03:17:50;;;;;;;13.03;10.80;;;;;;;22.09;100.00;96087.88;5072126;28;20622;-81
2021/08/02 03:20:18;;;;;;;12.27;10.27;;;;;;;22.05;100.00;96087.53;5071726;28;20209;-83
2021/08/02 03:22:49;;;;;;;10.97;9.93;;;;;;;22.19;100.00;96092.66;5071317;28;20220;-80
2021/08/02 03:25:23;;;;;;;13.23;10.90;;;;;;;22.17;100.00;96097.44;5071427;28;20239;-80
2021/08/02 03:27:55;;;;;;;13.27;11.73;;;;;;;22.36;100.00;96106.13;5071814;28;20245;-79
2021/08/02 03:30:23;;;;;;;12.10;10.80;;;;;;;22.18;100.00;96110.59;5071835;28;20273;-79
2021/08/02 03:32:53;;;;;;;12.50;11.20;;;;;;;22.14;100.00;96104.06;5077069;28;20231;-79
2021/08/02 03:35:21;;;;;;;13.73;10.53;;;;;;;22.19;100.00;96100.69;5089130;28;20262;-79
2021/08/02 03:37:50;;;;;;;12.10;10.90;;;;;;;22.18;100.00;96101.75;5088327;28;20683;-79
2021/08/02 03:40:19;;;;;;;11.93;10.83;;;;;;;22.17;100.00;96095.59;5092165;28;20196;-80
2021/08/02 03:42:48;;;;;;;14.33;10.67;;;;;;;22.21;100.00;96096.75;5091526;28;20238;-80
2021/08/02 03:45:19;;;;;;;15.27;11.50;;;;;;;22.09;100.00;96093.22;5091532;28;20258;-79
2021/08/02 03:47:47;;;;;;;12.33;11.13;;;;;;;21.86;100.00;96096.75;5091689;28;20205;-79
2021/08/02 03:50:15;;;;;;;16.63;12.47;;;;;;;22.05;100.00;96087.53;5091847;28;20291;-79
2021/08/02 03:52:43;;;;;;;13.93;12.53;;;;;;;22.12;100.00;96087.41;5089205;28;20196;-79
2021/08/02 03:55:12;;;;;;;13.77;12.47;;;;;;;22.06;100.00;96081.16;5089578;28;20633;-78
2021/08/02 03:57:39;;;;;;;13.13;11.80;;;;;;;21.96;100.00;96088.97;5091300;28;20585;-78
2021/08/02 04:00:08;;;;;;;18.67;11.77;;;;;;;21.74;100.00;96085.25;5092227;28;20262;-78
2021/08/02 04:02:35;;;;;;;14.83;11.93;;;;;;;21.89;100.00;96090.94;5091536;28;20226;-78
2021/08/02 04:05:03;;;;;;;13.37;11.97;;;;;;;21.82;100.00;96093.75;5092004;28;20192;-77
2021/08/02 04:07:32;;;;;;;13.00;11.73;;;;;;;21.89;100.00;96092.78;5091947;28;20281;-77
2021/08/02 04:09:59;;;;;;;13.27;11.17;;;;;;;21.87;100.00;96101.06;5091781;28;20245;-79
2021/08/02 04:12:26;;;;;;;12.33;11.20;;;;;;;22.13;100.00;96105.09;5091338;28;20200;-77
2021/08/02 04:14:53;;;;;;;14.90;11.63;;;;;;;22.12;100.00;96119.53;5092036;28;20257;-77
2021/08/02 04:17:21;;;;;;;13.20;11.93;;;;;;;22.18;100.00;96115.94;5091403;28;20267;-77
2021/08/02 04:19:48;;;;;;;17.87;12.47;;;;;;;22.11;100.00;96117.09;5091504;28;20239;-77
2021/08/02 04:22:15;;;;;;;16.43;13.53;;;;;;;22.15;100.00;96115.59;5091486;28;20232;-77
2021/08/02 04:24:44;;;;;;;15.83;12.83;;;;;;;22.19;100.00;96122.13;5092578;28;20196;-77
2021/08/02 04:27:11;;;;;;;14.07;11.93;;;;;;;22.34;100.00;96125.09;5095517;28;20261;-77
2021/08/02 04:29:39;;;;;;;14.73;10.93;;;;;;;22.37;100.00;96129.97;5095457;28;20250;-77
2021/08/02 04:32:07;;;;;;;14.00;11.80;;;;;;;22.42;100.00;96119.41;5095336;28;20735;-77
2021/08/02 04:34:34;;;;;;;14.43;11.43;;;;;;;22.27;100.00;96117.22;5095453;28;20245;-77
2021/08/02 04:37:01;;;;;;;10.73;9.63;;;;;;;22.37;100.00;96111.25;5095050;28;20216;-77
2021/08/02 04:39:29;;;;;;;11.70;10.57;;;;;;;22.32;100.00;96100.44;5095528;28;20228;-77
2021/08/02 04:41:57;;;;;;;12.20;10.97;;;;;;;22.20;100.00;96097.81;5095201;28;20204;-77
2021/08/02 04:44:25;;;;;;;12.80;11.53;;;;;;;22.16;100.00;96095.81;5095443;28;20228;-77
2021/08/02 04:46:54;;;;;;;12.20;11.07;;;;;;;22.13;100.00;96091.72;5094851;28;20231;-77
2021/08/02 04:49:21;;;;;;;15.57;12.30;;;;;;;22.22;100.00;96092.19;5095334;28;20200;-77
2021/08/02 04:51:48;;;;;;;11.77;10.43;;;;;;;22.47;100.00;96094.56;5095356;28;20219;-77
2021/08/02 04:54:16;;;;;;;15.30;11.93;;;;;;;22.65;100.00;96088.22;5095268;28;20228;-77
2021/08/02 04:56:43;;;;;;;12.80;11.63;;;;;;;22.60;100.00;96090.81;5094640;28;20220;-77
2021/08/02 04:59:11;;;;;;;12.37;11.03;;;;;;;22.60;100.00;96094.31;5095127;28;20232;-77
2021/08/02 05:01:39;;;;;;;11.90;10.80;;;;;;;22.69;100.00;96090.19;5095166;28;20624;-77
2021/08/02 05:04:06;;;;;;;12.93;11.73;;;;;;;22.85;100.00;96085.91;5095046;28;20665;-77
2021/08/02 05:06:33;;;;;;;13.73;11.20;;;;;;;22.89;100.00;96087.06;5094576;28;20238;-77
2021/08/02 05:09:00;;;;;;;17.27;12.43;;;;;;;23.09;100.00;96075.91;5094916;28;20222;-77
2021/08/02 05:11:28;;;;;;;15.20;12.47;;;;;;;23.11;100.00;96089.91;5094719;28;20243;-77
2021/08/02 05:13:55;;;;;;;13.80;12.50;;;;;;;23.12;100.00;96090.72;5094853;28;20236;-77
2021/08/02 05:16:25;;;;;;;14.30;12.77;;;;;;;23.13;100.00;96092.34;5094306;28;20259;-77
2021/08/02 05:18:52;;;;;;;12.73;11.30;;;;;;;23.26;100.00;96092.84;5094785;28;20581;-77
2021/08/02 05:21:19;;;;;;;21.87;12.03;;;;;;;23.34;100.00;96094.28;5094450;28;20732;-77
2021/08/02 05:23:46;;;;;;;14.93;13.40;;;;;;;23.42;100.00;96087.72;5094359;28;20196;-77
2021/08/02 05:26:14;;;;;;;16.90;11.80;;;;;;;23.39;100.00;96083.66;5094149;28;20199;-77
2021/08/02 05:28:41;;;;;;;13.53;12.10;;;;;;;23.46;100.00;96081.63;5094510;28;20201;-77
2021/08/02 05:31:09;;;;;;;12.60;11.40;;;;;;;23.54;100.00;96082.28;5094617;28;20587;-77
2021/08/02 05:33:38;;;;;;;15.47;12.67;;;;;;;23.76;100.00;96090.41;5094462;28;20196;-77
2021/08/02 05:36:05;;;;;;;16.80;12.73;;;;;;;23.92;100.00;96095.75;5093777;28;20263;-77
2021/08/02 05:38:32;;;;;;;13.57;12.30;;;;;;;24.02;100.00;96094.28;5094104;28;20283;-77
2021/08/02 05:41:00;;;;;;;19.90;12.67;;;;;;;24.18;100.00;96090.75;5094508;28;20227;-77
2021/08/02 05:43:27;;;;;;;17.60;14.33;;;;;;;24.32;100.00;96097.38;5094267;28;20200;-77
2021/08/02 05:45:55;;;;;;;18.10;15.43;;;;;;;24.51;100.00;96091.69;5093834;28;20252;-78
2021/08/02 05:48:22;;;;;;;16.50;14.37;;;;;;;24.64;100.00;96094.00;5094263;28;20232;-77
2021/08/02 05:50:51;;;;;;;15.63;12.97;;;;;;;24.79;100.00;96094.16;5093985;28;20196;-77
2021/08/02 05:53:18;;;;;;;13.30;12.00;;;;;;;25.12;100.00;96103.13;5094091;28;20192;-77
2021/08/02 05:55:45;;;;;;;13.23;11.83;;;;;;;25.24;100.00;96102.97;5094113;28;20663;-77
2021/08/02 05:58:13;;;;;;;13.50;12.40;;;;;;;25.44;100.00;96102.34;5094080;28;20200;-77
2021/08/02 06:00:40;;;;;;;14.93;12.18;;;;;;;25.58;100.00;96104.31;5094149;28;20204;-78
2021/08/02 06:03:08;;;;;;;15.80;12.55;;;;;;;25.70;100.00;96093.38;5093868;28;20239;-77
2021/08/02 06:05:35;;;;;;;14.10;12.68;;;;;;;25.84;100.00;96099.97;5093876;28;20264;-77
2021/08/02 06:08:04;;;;;;;15.57;12.00;;;;;;;25.96;100.00;96107.03;5093717;28;20239;-77
2021/08/02 06:10:32;;;;;;;11.98;10.85;;;;;;;26.16;100.00;96111.75;5093966;28;20196;-77
2021/08/02 06:12:59;;;;;;;13.38;11.75;;;;;;;26.38;100.00;96117.75;5093883;28;20255;-77
2021/08/02 06:15:26;;;;;;;13.70;11.45;;;;;;;26.60;100.00;96120.31;5093370;28;20246;-78
2021/08/02 06:17:53;;;;;;;13.73;11.00;;;;;;;26.74;100.00;96121.47;5093720;28;20224;-77
2021/08/02 06:20:21;;;;;;;14.98;10.30;;;;;;;26.79;100.00;96124.16;5093367;28;20738;-77
2021/08/02 06:22:48;;;;;;;12.27;11.07;;;;;;;26.99;100.00;96119.91;5093151;28;20228;-78
2021/08/02 06:25:17;;;;;;;12.20;11.10;;;;;;;27.06;100.00;96125.03;5093571;28;20287;-77
2021/08/02 06:27:44;;;;;;;11.30;10.07;;;;;;;27.27;100.00;96119.44;5093417;28;20714;-77
2021/08/02 06:30:12;;;;;;;15.23;11.20;;;;;;;27.57;100.00;96127.81;5093372;28;20629;-77
2021/08/02 06:32:39;;;;;;;18.55;11.35;;;;;;;27.81;100.00;96130.81;5093390;28;20247;-77
2021/08/02 06:35:07;;;;;;;13.93;10.15;;;;;;;27.90;100.00;96142.69;5093088;28;20196;-78
2021/08/02 06:37:34;;;;;;;12.93;10.77;;;;;;;28.01;100.00;96132.69;5093254;28;20256;-77
2021/08/02 06:40:01;;;;;;;13.65;10.85;;;;;;;28.21;100.00;96129.94;5093168;28;20605;-77
2021/08/02 06:42:30;;;;;;;13.25;10.40;;;;;;;28.38;100.00;96129.63;5092966;28;20265;-77
2021/08/02 06:44:57;;;;;;;11.68;10.45;;;;;;;28.45;100.00;96130.16;5093479;28;20238;-78
2021/08/02 06:47:24;;;;;;;13.35;10.63;;;;;;;28.64;100.00;96136.56;5092770;28;20226;-78
2021/08/02 06:49:52;;;;;;;12.05;10.02;;;;;;;29.04;100.00;96131.28;5091980;28;20202;-77
2021/08/02 06:52:19;;;;;;;11.88;10.63;;;;;;;29.18;100.00;96129.56;5093021;28;20277;-78
2021/08/02 06:54:46;;;;;;;10.52;9.52;;;;;;;29.33;100.00;96134.88;5093200;28;20199;-77
2021/08/02 06:57:14;;;;;;;13.00;10.40;;;;;;;29.58;100.00;96130.34;5092969;28;20223;-77
2021/08/02 06:59:42;;;;;;;12.23;9.48;;;;;;;29.70;100.00;96133.56;5092640;28;20684;-77
2021/08/02 07:02:10;;;;;;;12.00;10.75;;;;;;;29.65;100.00;96132.78;5092598;28;20197;-77
2021/08/02 07:04:37;;;;;;;11.88;10.10;;;;;;;29.63;100.00;96134.97;5092842;28;20200;-78
2021/08/02 07:07:05;;;;;;;11.43;9.77;;;;;;;29.90;100.00;96135.28;5092445;28;20283;-77
2021/08/02 07:09:32;;;;;;;12.50;10.90;;;;;;;30.15;100.00;96136.13;5092720;28;20279;-78
2021/08/02 07:11:59;;;;;;;14.23;10.35;;;;;;;30.13;100.00;96128.25;5092523;28;20200;-78
2021/08/02 07:14:27;;;;;;;10.98;9.98;;;;;;;30.10;100.00;96142.38;5092550;28;20676;-78
2021/08/02 07:16:55;;;;;;;12.13;10.90;;;;;;;30.15;100.00;96142.34;5092222;28;20216;-77
2021/08/02 07:19:23;;;;;;;16.30;11.70;;;;;;;30.67;100.00;96142.63;5092215;28;20249;-78
2021/08/02 07:21:50;;;;;;;11.23;10.10;;;;;;;30.71;100.00;96139.03;5092065;28;20267;-78
2021/08/02 07:24:17;;;;;;;12.10;10.95;;;;;;;30.90;100.00;96144.53;5092436;28;20784;-78
2021/08/02 07:26:45;;;;;;;12.32;11.05;;;;;;;30.92;100.00;96142.31;5092094;28;20196;-78
2021/08/02 07:29:12;;;;;;;12.32;11.18;;;;;;;31.19;100.00;96146.31;5092164;28;20200;-78
2021/08/02 07:31:39;;;;;;;11.93;10.07;;;;;;;31.21;100.00;96144.09;5092433;28;20605;-78
2021/08/02 07:34:08;;;;;;;11.50;10.15;;;;;;;31.16;100.00;96144.97;5092295;28;20196;-78
2021/08/02 07:36:35;;;;;;;11.77;10.70;;;;;;;31.42;100.00;96141.94;5092223;28;20224;-78
2021/08/02 07:39:02;;;;;;;11.80;10.80;;;;;;;31.65;100.00;96151.88;5092176;28;20196;-78
2021/08/02 07:41:30;;;;;;;17.63;11.82;;;;;;;31.78;100.00;96144.88;5091878;28;20584;-78
2021/08/02 07:43:58;;;;;;;13.38;10.55;;;;;;;31.78;100.00;96147.59;5092526;28;20431;-78
2021/08/02 07:46:25;;;;;;;18.65;11.82;;;;;;;32.02;100.00;96146.69;5091915;28;20204;-78
2021/08/02 07:48:53;;;;;;;13.75;11.10;;;;;;;32.39;100.00;96146.56;5092183;28;20304;-78
2021/08/02 07:51:21;;;;;;;14.48;11.50;;;;;;;32.38;100.00;96149.56;5091889;28;20200;-78
2021/08/02 07:53:49;;;;;;;15.68;10.90;;;;;;;31.83;100.00;96144.00;5092091;28;20232;-78
2021/08/02 07:56:16;;;;;;;13.05;11.60;;;;;;;31.81;100.00;96140.78;5091772;28;20232;-78
2021/08/02 07:58:44;;;;;;;16.90;11.60;;;;;;;32.07;100.00;96143.88;5092033;28;20224;-78
2021/08/02 08:01:11;;;;;;;11.50;10.20;;;;;;;32.24;100.00;96135.94;5091483;28;20235;-78
2021/08/02 08:03:38;;;;;;;11.73;10.55;;;;;;;32.11;100.00;96136.72;5091898;28;20253;-78
2021/08/02 08:06:06;;;;;;;14.25;10.57;;;;;;;32.55;100.00;96128.03;5091638;28;20196;-78
2021/08/02 08:08:34;;;;;;;12.95;10.77;;;;;;;32.85;100.00;96123.09;5091658;28;20200;-78
2021/08/02 08:11:02;;;;;;;13.75;11.00;;;;;;;32.95;100.00;96122.06;5091687;28;20237;-78
2021/08/02 08:13:29;;;;;;;12.45;11.20;;;;;;;32.78;100.00;96118.06;5091803;28;20257;-78
2021/08/02 08:15:56;;;;;;;17.48;12.90;;;;;;;32.69;100.00;96130.75;5091624;28;20220;-78
2021/08/02 08:18:24;;;;;;;17.10;11.38;;;;;;;32.83;100.00;96123.38;5091595;28;20273;-78
2021/08/02 08:20:51;;;;;;;11.63;10.40;;;;;;;33.25;100.00;96118.66;5091236;28;20259;-78
2021/08/02 08:23:18;;;;;;;22.10;10.55;;;;;;;33.43;100.00;96119.66;5091751;28;20200;-78
2021/08/02 08:25:47;;;;;;;12.93;10.98;;;;;;;33.43;100.00;96111.47;5091493;28;20200;-79
2021/08/02 08:28:14;;;;;;;22.55;10.90;;;;;;;33.45;100.00;96116.59;5091456;28;20192;-78
2021/08/02 08:30:42;;;;;;;12.63;11.27;;;;;;;33.53;100.00;96107.69;5091452;28;20197;-79
2021/08/02 08:33:09;;;;;;;16.13;11.02;;;;;;;33.51;100.00;96104.50;5091663;28;20235;-79
2021/08/02 08:35:37;;;;;;;17.33;11.15;;;;;;;33.85;100.00;96104.72;5091496;28;20223;-79
2021/08/02 08:38:04;;;;;;;11.80;10.15;;;;;;;33.98;100.00;96111.22;5091469;28;20285;-78
2021/08/02 08:40:34;;;;;;;15.50;10.45;;;;;;;34.01;100.00;96107.06;5091436;28;20295;-79
2021/08/02 08:43:03;;;;;;;12.95;10.45;;;;;;;34.22;100.00;96108.13;5091834;28;20192;-79
2021/08/02 08:45:31;;;;;;;15.48;11.25;;;;;;;34.47;100.00;96103.13;5091263;28;20200;-79
2021/08/02 08:47:58;;;;;;;14.73;10.63;;;;;;;34.43;100.00;96099.38;5091414;28;20189;-79
2021/08/02 08:50:26;;;;;;;16.85;10.27;;;;;;;34.41;100.00;96094.25;5091443;28;20766;-79
2021/08/02 08:52:58;;;;;;;16.83;10.65;;;;;;;34.50;100.00;96097.00;5091031;28;20240;-79
2021/08/02 08:55:25;;;;;;;11.90;10.27;;;;;;;34.73;100.00;96095.03;5091460;28;20238;-79
2021/08/02 08:57:52;;;;;;;14.27;9.93;;;;;;;34.67;100.00;96099.81;5091167;28;20789;-79
2021/08/02 09:00:23;;;;;;;11.57;10.07;;;;;;;34.69;100.00;96096.78;5091437;28;20291;-79
2021/08/02 09:02:51;;;;;;;12.45;9.90;;;;;;;34.52;100.00;96095.59;5090999;28;20192;-79
2021/08/02 09:05:19;;;;;;;10.40;9.10;;;;;;;34.55;100.00;96086.00;5091393;28;20760;-79
2021/08/02 09:07:47;;;;;;;13.38;9.73;;;;;;;34.77;100.00;96093.25;5091132;28;20254;-79
2021/08/02 09:10:17;;;;;;;10.93;9.73;;;;;;;34.90;100.00;96092.31;5091125;28;20196;-79
2021/08/02 09:12:53;;;;;;;12.98;10.00;;;;;;;35.02;100.00;96088.97;5093508;28;20181;-79
2021/08/02 09:15:31;;;;;;;11.52;9.10;;;;;;;35.27;100.00;96084.69;5094873;28;20228;-80
2021/08/02 09:17:59;;;;;;;10.80;8.82;;;;;;;35.33;100.00;96085.31;5095004;28;20587;-79
2021/08/02 09:20:26;;;;;;;12.27;9.38;;;;;;;35.44;100.00;96081.13;5094357;28;20200;-79
2021/08/02 09:22:54;;;;;;;15.40;9.50;;;;;;;35.42;100.00;96067.78;5094691;28;20188;-79
2021/08/02 09:25:24;;;;;;;16.98;9.82;;;;;;;35.72;100.00;96076.94;5094706;28;20254;-79
2021/08/02 09:27:53;;;;;;;12.52;9.23;;;;;;;35.73;100.00;96069.53;5094517;28;20676;-79
2021/08/02 09:30:24;;;;;;;12.98;10.05;;;;;;;35.71;100.00;96069.88;5094411;28;20196;-79
2021/08/02 09:32:54;;;;;;;9.45;8.55;;;;;;;35.69;100.00;96065.84;5094417;28;20702;-79
2021/08/02 09:35:29;;;;;;;12.13;9.05;;;;;;;35.51;100.00;96059.63;5094544;28;20196;-79
2021/08/02 09:37:57;;;;;;;12.95;9.07;;;;;;;35.66;100.00;96066.50;5094252;28;20691;-79
2021/08/02 09:40:25;;;;;;;13.25;9.55;;;;;;;35.67;100.00;96063.41;5094408;28;20200;-79
2021/08/02 09:42:57;;;;;;;13.43;8.85;;;;;;;35.36;100.00;96060.06;5094318;28;20196;-79
2021/08/02 09:45:28;;;;;;;10.00;9.05;;;;;;;35.50;100.00;96063.41;5094293;28;20192;-79
2021/08/02 09:47:55;;;;;;;15.55;9.10;;;;;;;35.38;100.00;96052.38;5094238;28;20180;-79
2021/08/02 09:50:29;;;;;;;15.18;10.48;;;;;;;35.54;100.00;96056.25;5094255;28;20341;-79
2021/08/02 09:52:57;;;;;;;11.82;9.48;;;;;;;35.81;100.00;96056.97;5093775;28;20242;-80
2021/08/02 09:55:25;;;;;;;11.63;9.10;;;;;;;35.69;100.00;96052.97;5094086;28;20250;-80
2021/08/02 09:57:54;;;;;;;10.38;8.95;;;;;;;35.78;100.00;96060.34;5093897;28;20256;-79
2021/08/02 10:00:22;;;;;;;12.93;9.13;;;;;;;35.95;100.00;96058.34;5094033;28;20245;-79
2021/08/02 10:02:52;;;;;;;11.82;8.77;;;;;;;35.91;100.00;96051.94;5093603;28;20200;-79
2021/08/02 10:05:21;;;;;;;14.85;9.90;;;;;;;36.05;100.00;96051.75;5093921;28;20200;-79
2021/08/02 10:07:48;;;;;;;13.02;8.93;;;;;;;36.06;100.00;96045.19;5093745;28;20192;-79
2021/08/02 10:10:17;;;;;;;17.50;9.65;;;;;;;36.28;100.00;96035.91;5093667;28;20196;-79
2021/08/02 10:12:47;;;;;;;15.18;11.65;;;;;;;36.39;100.00;96033.59;5093670;28;20580;-80
2021/08/02 10:15:17;;;;;;;45.50;40.90;;;;;;;36.27;100.00;96038.94;5093707;28;20239;-79
2021/08/02 10:17:51;;;;;;;29.48;26.35;;;;;;;36.36;100.00;96037.78;5093472;28;20216;-80
2021/08/02 10:20:22;;;;;;;43.63;39.33;;;;;;;36.43;100.00;96040.78;5093689;28;20262;-80
2021/08/02 10:22:50;;;;;;;41.50;36.85;;;;;;;36.47;100.00;96043.66;5093159;28;20188;-80
2021/08/02 10:25:17;;;;;;;17.73;15.63;;;;;;;36.38;100.00;96034.72;5093417;28;20192;-80
2021/08/02 10:27:44;;;;;;;16.58;14.82;;;;;;;36.59;100.00;96032.06;5093352;28;20614;-80
2021/08/02 10:30:23;;;;;;;18.45;13.68;;;;;;;36.62;100.00;96031.41;5093120;28;20192;-80
2021/08/02 10:32:57;;;;;;;31.63;24.35;;;;;;;36.58;100.00;96031.25;5093261;28;20196;-80
2021/08/02 10:35:36;;;;;;;15.25;12.13;;;;;;;36.59;100.00;96032.06;5093295;28;20223;-80
2021/08/02 10:38:05;;;;;;;54.40;49.35;;;;;;;36.49;100.00;96026.97;5093529;28;20246;-80
2021/08/02 10:40:48;;;;;;;40.45;36.83;;;;;;;36.50;100.00;96017.63;5092880;28;20249;-81
2021/08/02 10:43:26;;;;;;;28.23;24.60;;;;;;;36.35;100.00;96022.50;5093576;28;20625;-80
2021/08/02 10:45:54;;;;;;;19.48;13.32;;;;;;;36.51;100.00;96016.47;5092909;28;20224;-80
2021/08/02 10:48:30;;;;;;;17.17;12.32;;;;;;;36.50;100.00;96014.88;5093058;28;20242;-79
2021/08/02 10:51:09;;;;;;;17.73;11.23;;;;;;;36.59;100.00;96021.91;5093196;28;20223;-79
2021/08/02 10:53:37;;;;;;;23.60;16.58;;;;;;;36.70;100.00;96016.03;5093148;28;20184;-79
2021/08/02 10:56:04;;;;;;;31.10;20.80;;;;;;;36.73;100.00;96016.19;5092778;28;20239;-79
2021/08/02 10:58:36;;;;;;;21.80;18.67;;;;;;;36.67;100.00;96012.03;5092744;28;20259;-79
2021/08/02 11:01:05;;;;;;;16.02;10.95;;;;;;;36.82;100.00;96002.41;5092499;28;20195;-80
2021/08/02 11:03:36;;;;;;;19.75;11.63;;;;;;;36.79;100.00;96003.91;5092765;28;20238;-79
2021/08/02 11:06:08;;;;;;;11.15;9.75;;;;;;;36.70;100.00;95999.63;5092600;28;20636;-80
2021/08/02 11:08:43;;;;;;;40.85;35.80;;;;;;;36.80;100.00;95993.75;5092495;28;20223;-80
2021/08/02 11:11:11;;;;;;;57.95;50.97;;;;;;;36.32;100.00;95990.31;5092569;28;20184;-79
2021/08/02 11:13:38;;;;;;;24.20;20.27;;;;;;;36.69;100.00;95987.06;5092691;28;20253;-80
2021/08/02 11:16:10;;;;;;;55.40;49.00;;;;;;;36.40;100.00;95983.19;5092218;28;20204;-80
2021/08/02 11:18:44;;;;;;;59.10;53.08;;;;;;;36.53;100.00;95986.84;5092484;28;20245;-79
2021/08/02 11:21:22;;;;;;;44.78;36.22;;;;;;;36.46;100.00;95990.06;5092115;28;20238;-80